Time;durP1;ratioP1;P1;durP2;ratioP2;P2;SDS_P1;SDS_P2;PMS_P1;PMS_P2;Temp;Humidity;BMP_temperature;BMP_pressure;BME280_temperature;BME280_humidity;BME280_pressure;Samples;Min_cycle;Max_cycle;Signal;HPM_P1;HPM_P2
2023/04/22 00:01:00;;;;;;;12.50;4.30;;;;;;;9.90;66.50;99590.77;105759;1254;65551;-70
2023/04/22 00:03:28;;;;;;;16.10;4.30;;;;;;;9.93;66.20;99595.98;105738;1266;60309;-68
2023/04/22 00:05:57;;;;;;;15.80;4.00;;;;;;;9.91;66.28;99598.09;105875;1255;60501;-70
2023/04/22 00:08:25;;;;;;;10.70;4.40;;;;;;;9.91;66.28;99597.95;105876;1255;66740;-68
2023/04/22 00:10:54;;;;;;;13.80;4.80;;;;;;;9.90;66.28;99602.53;105753;1257;60473;-68
2023/04/22 00:13:22;;;;;;;15.80;4.20;;;;;;;9.89;66.26;99603.17;105863;1256;65549;-70
2023/04/22 00:15:50;;;;;;;12.70;4.00;;;;;;;9.88;66.11;99606.81;105868;1254;60469;-69
2023/04/22 00:18:19;;;;;;;13.50;4.50;;;;;;;9.87;66.10;99607.27;105552;1257;60460;-73
2023/04/22 00:20:48;;;;;;;13.10;4.10;;;;;;;9.70;66.42;99606.66;105769;1257;66501;-69
2023/04/22 00:23:16;;;;;;;14.80;4.30;;;;;;;9.60;66.67;99606.08;105743;1257;60459;-69
2023/04/22 00:25:44;;;;;;;12.00;4.00;;;;;;;9.60;66.68;99606.98;105774;1254;65530;-69
2023/04/22 00:28:13;;;;;;;15.10;4.50;;;;;;;9.74;66.27;99608.06;105554;1259;60551;-71
2023/04/22 00:30:41;;;;;;;13.80;4.00;;;;;;;9.76;66.20;99606.27;105350;1262;60447;-68
2023/04/22 00:33:10;;;;;;;12.30;3.90;;;;;;;9.77;66.10;99606.77;105639;1258;66498;-68
2023/04/22 00:35:38;;;;;;;11.80;4.20;;;;;;;9.76;66.06;99606.30;105707;1253;60499;-68
2023/04/22 00:38:06;;;;;;;11.90;4.10;;;;;;;9.75;66.01;99604.42;105759;1254;65798;-70
2023/04/22 00:40:35;;;;;;;11.70;4.00;;;;;;;9.74;65.98;99605.01;105668;1254;60344;-70
2023/04/22 00:43:03;;;;;;;11.70;4.10;;;;;;;9.71;65.94;99603.55;105623;1254;60620;-68
2023/04/22 00:45:31;;;;;;;13.00;4.10;;;;;;;9.67;65.94;99599.20;105747;1254;66553;-69
2023/04/22 00:48:00;;;;;;;15.80;4.40;;;;;;;9.64;65.91;99598.89;105611;1257;60450;-70
2023/04/22 00:50:29;;;;;;;14.50;5.00;;;;;;;9.62;65.95;99599.45;105445;1259;65547;-69
2023/04/22 00:52:57;;;;;;;10.90;4.50;;;;;;;9.61;65.90;99602.70;105822;1254;61045;-68
2023/04/22 00:55:25;;;;;;;12.40;4.00;;;;;;;9.62;65.96;99606.24;105660;1254;60588;-69
2023/04/22 00:57:54;;;;;;;14.80;4.10;;;;;;;9.62;65.90;99603.44;105503;1252;65758;-68
2023/04/22 01:00:25;;;;;;;8.80;4.30;;;;;;;9.58;65.94;99600.69;105978;1255;60520;-70
2023/04/22 01:02:54;;;;;;;11.10;4.40;;;;;;;9.55;66.06;99599.68;105630;1254;65553;-70
2023/04/22 01:05:24;;;;;;;14.90;4.30;;;;;;;9.53;65.97;99600.39;105897;1251;60370;-68
2023/04/22 01:07:52;;;;;;;15.90;5.10;;;;;;;9.51;66.15;99599.20;105617;1252;60617;-68
2023/04/22 01:10:21;;;;;;;13.20;4.50;;;;;;;9.51;66.14;99597.97;105585;1254;66675;-68
2023/04/22 01:12:51;;;;;;;12.50;4.50;;;;;;;9.51;66.11;99595.64;105856;1257;60522;-70
2023/04/22 01:15:19;;;;;;;13.00;4.70;;;;;;;9.50;66.23;99595.52;105890;1254;66075;-69
2023/04/22 01:17:48;;;;;;;12.00;4.50;;;;;;;9.50;66.22;99595.20;105668;1255;61040;-69
2023/04/22 01:20:18;;;;;;;13.00;4.90;;;;;;;9.50;66.40;99593.95;105611;1253;60456;-68
2023/04/22 01:22:47;;;;;;;15.00;5.30;;;;;;;9.52;66.41;99595.26;105552;1251;65850;-69
2023/04/22 01:25:15;;;;;;;12.80;4.50;;;;;;;9.51;66.40;99595.83;105741;1253;60287;-70
2023/04/22 01:27:44;;;;;;;13.70;4.40;;;;;;;9.51;66.46;99594.98;105975;1254;65271;-69
2023/04/22 01:30:13;;;;;;;14.10;4.50;;;;;;;9.51;66.53;99593.20;105810;1257;60453;-70
2023/04/22 01:32:41;;;;;;;10.90;4.70;;;;;;;9.52;66.45;99593.31;105617;1253;60329;-69
2023/04/22 01:35:10;;;;;;;16.60;4.90;;;;;;;9.51;66.50;99597.95;105776;1257;66696;-69
2023/04/22 01:37:38;;;;;;;18.50;4.90;;;;;;;9.50;66.48;99598.36;105876;1254;60495;-68
2023/04/22 01:40:08;;;;;;;15.20;5.20;;;;;;;9.51;66.63;99600.97;105738;1256;64581;-69
2023/04/22 01:42:37;;;;;;;11.70;4.80;;;;;;;9.51;66.76;99602.83;105618;1255;60508;-71
2023/04/22 01:45:06;;;;;;;14.20;4.60;;;;;;;9.52;66.80;99602.55;105574;1254;60449;-68
2023/04/22 01:47:35;;;;;;;12.90;5.00;;;;;;;9.41;66.94;99601.63;105775;1254;66491;-69
2023/04/22 01:50:04;;;;;;;17.80;5.50;;;;;;;9.42;67.13;99600.64;105933;1256;60408;-69
2023/04/22 01:52:32;;;;;;;14.50;4.80;;;;;;;9.54;66.87;99605.25;105802;1253;65555;-69
2023/04/22 01:55:00;;;;;;;15.10;4.80;;;;;;;9.56;66.79;99601.34;105469;1251;60444;-69
2023/04/22 01:57:29;;;;;;;12.50;4.80;;;;;;;9.57;66.73;99603.42;107100;1254;60428;-68
2023/04/22 01:59:58;;;;;;;12.60;4.70;;;;;;;9.49;66.94;99598.47;105772;1256;66515;-68
2023/04/22 02:02:26;;;;;;;12.10;4.60;;;;;;;9.37;67.21;99596.17;105828;1256;60417;-69
2023/04/22 02:04:54;;;;;;;15.20;4.80;;;;;;;9.46;67.13;99596.96;105428;1254;65134;-69
2023/04/22 02:07:22;;;;;;;14.10;4.80;;;;;;;9.57;66.83;99600.60;105957;1254;60367;-68
2023/04/22 02:09:51;;;;;;;13.20;5.00;;;;;;;9.57;66.83;99598.25;105934;1254;61038;-69
2023/04/22 02:12:19;;;;;;;11.90;4.80;;;;;;;9.44;67.22;99596.45;105973;1253;66723;-73
2023/04/22 02:14:47;;;;;;;18.00;4.90;;;;;;;9.37;67.42;99593.21;105571;1254;60455;-70
2023/04/22 02:17:16;;;;;;;11.90;4.20;;;;;;;9.41;67.39;99592.13;105883;1254;64286;-69
2023/04/22 02:19:46;;;;;;;14.20;4.80;;;;;;;9.56;66.95;99591.92;105662;1252;60482;-69
2023/04/22 02:22:14;;;;;;;12.70;4.20;;;;;;;9.58;66.85;99592.39;105792;1251;60539;-69
2023/04/22 02:24:42;;;;;;;10.10;4.50;;;;;;;9.59;66.61;99590.07;105674;1260;66843;-69
2023/04/22 02:27:10;;;;;;;12.20;4.40;;;;;;;9.57;66.63;99586.18;105736;1254;60353;-69
2023/04/22 02:29:40;;;;;;;11.20;4.50;;;;;;;9.57;66.63;99585.43;105785;1254;64582;-69
2023/04/22 02:32:09;;;;;;;10.10;4.40;;;;;;;9.58;66.60;99588.17;105644;1253;60476;-70
2023/04/22 02:34:38;;;;;;;12.00;4.40;;;;;;;9.60;66.54;99585.40;105639;1251;60542;-68
2023/04/22 02:37:06;;;;;;;18.70;4.50;;;;;;;9.61;66.45;99584.38;105996;1254;66709;-69
2023/04/22 02:39:35;;;;;;;14.00;4.20;;;;;;;9.59;66.43;99579.68;105627;1253;60795;-68
2023/04/22 02:42:03;;;;;;;14.80;4.50;;;;;;;9.58;66.27;99579.02;105611;1254;65521;-69
2023/04/22 02:44:32;;;;;;;14.30;4.50;;;;;;;9.61;66.29;99576.48;105963;1257;60539;-68
2023/04/22 02:47:02;;;;;;;12.30;4.00;;;;;;;9.62;66.18;99579.77;105884;1254;60462;-69
2023/04/22 02:49:30;;;;;;;10.30;3.80;;;;;;;9.59;66.02;99586.88;105728;1253;66707;-68
2023/04/22 02:51:58;;;;;;;12.80;3.90;;;;;;;9.56;65.98;99589.44;105601;1255;60429;-69
2023/04/22 02:54:27;;;;;;;10.90;3.80;;;;;;;9.53;65.89;99592.48;105929;1254;65622;-68
2023/04/22 02:56:56;;;;;;;5.80;3.80;;;;;;;9.50;66.00;99593.61;105626;1254;60514;-68
2023/04/22 02:59:25;;;;;;;9.10;3.90;;;;;;;9.47;65.90;99596.33;105664;1253;60517;-69
2023/04/22 03:01:53;;;;;;;12.50;4.50;;;;;;;9.44;65.89;99595.58;105829;1256;66718;-69
2023/04/22 03:04:40;;;;;;;13.00;4.20;;;;;;;9.42;66.02;99596.41;105930;1253;60440;-70
2023/04/22 03:07:09;;;;;;;11.40;4.00;;;;;;;9.41;66.08;99594.80;105950;1252;64436;-70
2023/04/22 03:09:38;;;;;;;9.10;4.00;;;;;;;9.41;66.12;99595.64;105638;1254;60475;-69
2023/04/22 03:12:08;;;;;;;9.50;4.00;;;;;;;9.40;66.03;99599.39;106017;1257;60440;-69
2023/04/22 03:14:36;;;;;;;9.70;3.90;;;;;;;9.38;65.93;99600.11;105901;1257;67113;-70
2023/04/22 03:17:05;;;;;;;10.10;4.10;;;;;;;9.35;66.05;99603.36;105812;1254;60418;-70
2023/04/22 03:19:35;;;;;;;9.00;3.60;;;;;;;9.33;66.00;99606.92;105789;1257;65511;-69
2023/04/22 03:22:04;;;;;;;10.70;4.40;;;;;;;9.31;66.16;99608.86;105715;1257;60432;-69
2023/04/22 03:24:32;;;;;;;7.90;3.80;;;;;;;9.31;66.26;99611.41;105829;1256;60446;-68
2023/04/22 03:27:04;;;;;;;8.10;3.60;;;;;;;9.33;66.24;99614.08;105567;1253;66542;-69
2023/04/22 03:29:33;;;;;;;10.90;4.10;;;;;;;9.33;66.10;99617.98;105390;1254;60470;-70
2023/04/22 03:32:01;;;;;;;12.10;4.00;;;;;;;9.33;66.23;99620.96;106026;1252;65242;-70
2023/04/22 03:34:30;;;;;;;10.70;4.00;;;;;;;9.31;66.18;99624.95;105794;1252;60437;-68
2023/04/22 03:36:58;;;;;;;12.60;4.60;;;;;;;9.30;66.29;99626.70;105472;1254;60454;-69
2023/04/22 03:39:27;;;;;;;8.50;4.30;;;;;;;9.30;66.26;99631.77;105909;1254;65852;-68
2023/04/22 03:41:55;;;;;;;15.60;4.50;;;;;;;9.30;66.46;99635.60;105917;1254;60481;-71
2023/04/22 03:44:23;;;;;;;7.50;4.30;;;;;;;9.32;66.48;99637.41;106000;1257;65344;-68
2023/04/22 03:46:52;;;;;;;14.60;5.10;;;;;;;9.33;66.58;99638.68;105227;1254;60394;-68
2023/04/22 03:49:24;;;;;;;14.00;4.70;;;;;;;9.35;66.63;99639.00;105866;1254;60633;-67
2023/04/22 03:51:52;;;;;;;15.50;4.90;;;;;;;9.38;66.60;99639.71;105660;1254;65582;-69
2023/04/22 03:54:23;;;;;;;9.90;4.70;;;;;;;9.40;66.60;99642.14;105747;1254;60443;-68
2023/04/22 03:56:52;;;;;;;12.90;5.10;;;;;;;9.42;66.73;99648.60;105594;1254;65271;-68
2023/04/22 03:59:21;;;;;;;15.00;6.10;;;;;;;9.44;66.70;99651.19;105493;1254;305616;-68
2023/04/22 04:01:50;;;;;;;15.20;6.00;;;;;;;9.48;66.80;99655.18;105772;1253;60511;-69
2023/04/22 04:04:22;;;;;;;16.90;6.10;;;;;;;9.51;66.88;99656.64;105854;1254;66523;-69
2023/04/22 04:06:55;;;;;;;14.40;6.60;;;;;;;9.56;67.01;99659.00;105792;1254;60529;-68
2023/04/22 04:09:23;;;;;;;14.10;6.30;;;;;;;9.61;66.93;99655.01;105663;1260;65586;-69
2023/04/22 04:11:52;;;;;;;13.00;6.00;;;;;;;9.66;66.92;99657.04;105930;1254;60428;-68
2023/04/22 04:14:20;;;;;;;14.00;6.40;;;;;;;9.72;67.12;99661.45;105822;1254;60456;-70
2023/04/22 04:16:51;;;;;;;14.90;6.40;;;;;;;9.78;67.10;99663.45;105693;1257;66453;-69
2023/04/22 04:19:30;;;;;;;11.10;5.60;;;;;;;9.84;67.13;99662.91;105846;1254;60427;-67
2023/04/22 04:21:59;;;;;;;16.90;5.90;;;;;;;9.91;67.15;99665.63;105721;1257;65577;-69
2023/04/22 04:24:30;;;;;;;17.30;5.30;;;;;;;9.98;67.09;99667.63;105768;1254;60453;-68
2023/04/22 04:27:05;;;;;;;14.50;5.30;;;;;;;10.06;66.95;99672.36;105581;1253;60914;-70
2023/04/22 04:29:40;;;;;;;14.80;5.40;;;;;;;10.14;66.89;99668.71;105919;1256;66474;-69
2023/04/22 04:32:13;;;;;;;12.60;6.00;;;;;;;10.19;66.77;99668.90;105876;1254;60443;-68
2023/04/22 04:34:42;;;;;;;12.90;4.80;;;;;;;10.24;66.62;99670.47;105689;1254;65344;-67
2023/04/22 04:37:11;;;;;;;15.60;5.80;;;;;;;10.30;66.52;99672.52;105944;1254;60533;-71
2023/04/22 04:39:58;;;;;;;16.70;5.70;;;;;;;10.38;66.33;99675.88;105926;1257;60345;-68
2023/04/22 04:42:32;;;;;;;18.40;4.70;;;;;;;10.44;66.19;99679.76;105760;1255;66482;-69
2023/04/22 04:45:05;;;;;;;14.40;5.70;;;;;;;10.49;66.09;99682.09;105939;1254;60580;-69
2023/04/22 04:47:34;;;;;;;12.60;5.00;;;;;;;10.57;65.89;99687.90;105826;1257;65150;-69
2023/04/22 04:50:11;;;;;;;14.50;5.30;;;;;;;10.64;65.73;99688.52;105769;1254;60463;-70
2023/04/22 04:52:40;;;;;;;15.10;5.10;;;;;;;10.69;65.66;99687.88;105592;1254;60434;-69
2023/04/22 04:55:09;;;;;;;15.80;5.20;;;;;;;10.76;65.59;99687.74;105666;1254;66511;-69
2023/04/22 04:57:37;;;;;;;12.10;4.70;;;;;;;10.85;65.42;99689.87;105676;1254;60430;-69
2023/04/22 05:00:07;;;;;;;12.40;5.00;;;;;;;10.96;65.40;99696.54;105623;1254;65588;-69
2023/04/22 05:02:35;;;;;;;14.40;5.10;;;;;;;11.05;65.31;99694.08;105704;1254;60539;-66
2023/04/22 05:05:05;;;;;;;14.80;5.20;;;;;;;11.12;65.05;99696.91;105843;1254;60456;-68
2023/04/22 05:07:34;;;;;;;18.00;5.00;;;;;;;11.21;64.93;99690.86;105589;1254;65673;-69
2023/04/22 05:10:03;;;;;;;13.70;4.80;;;;;;;11.29;64.81;99689.50;105524;1254;60472;-69
2023/04/22 05:12:31;;;;;;;15.40;5.00;;;;;;;11.38;64.67;99689.79;105652;1257;65157;-69
2023/04/22 05:15:00;;;;;;;13.90;4.80;;;;;;;11.45;64.68;99690.34;105561;1257;60425;-69
2023/04/22 05:17:29;;;;;;;14.10;4.60;;;;;;;11.51;64.49;99690.70;105776;1257;60434;-69
2023/04/22 05:19:58;;;;;;;16.30;4.90;;;;;;;11.57;64.35;99691.33;105727;1256;66454;-70
2023/04/22 05:22:27;;;;;;;13.00;4.70;;;;;;;11.63;64.12;99694.43;105546;1254;60519;-68
2023/04/22 05:24:55;;;;;;;15.80;4.90;;;;;;;11.71;63.76;99695.83;105620;1254;65453;-69
2023/04/22 05:27:23;;;;;;;14.90;5.20;;;;;;;11.78;63.57;99694.61;105652;1254;60549;-68
2023/04/22 05:29:51;;;;;;;13.10;4.60;;;;;;;11.83;63.39;99695.58;105759;1254;60472;-68
2023/04/22 05:32:23;;;;;;;12.90;4.50;;;;;;;11.85;63.16;99696.77;105688;1254;66565;-70
2023/04/22 05:34:53;;;;;;;16.50;4.60;;;;;;;11.90;62.98;99694.06;105631;1254;60569;-69
2023/04/22 05:37:21;;;;;;;14.00;4.80;;;;;;;11.95;62.78;99697.21;105607;1257;65720;-69
2023/04/22 05:39:50;;;;;;;10.90;4.30;;;;;;;12.00;62.70;99698.50;105568;1254;60447;-69
2023/04/22 05:42:18;;;;;;;15.60;5.10;;;;;;;12.07;62.63;99698.16;105783;1254;60457;-69
2023/04/22 05:44:47;;;;;;;13.30;4.60;;;;;;;12.16;62.31;99700.31;105752;1254;65523;-68
2023/04/22 05:47:16;;;;;;;15.20;4.50;;;;;;;12.25;62.25;99702.60;105849;1254;60527;-69
2023/04/22 05:49:44;;;;;;;13.50;4.50;;;;;;;12.34;61.89;99701.76;105605;1259;64534;-68
2023/04/22 05:52:20;;;;;;;15.40;4.50;;;;;;;12.46;61.73;99704.43;105648;1254;60489;-70
2023/04/22 05:55:15;;;;;;;16.50;4.70;;;;;;;12.57;61.63;99701.20;105690;1254;60312;-70
2023/04/22 05:57:43;;;;;;;13.90;4.10;;;;;;;12.68;61.47;99703.39;105474;1254;65554;-70
2023/04/22 06:00:31;;;;;;;13.90;4.40;;;;;;;12.79;60.85;99702.96;106155;1253;60426;-67
2023/04/22 06:03:09;;;;;;;14.00;4.10;;;;;;;12.90;60.14;99700.44;105558;1254;64258;-68
2023/04/22 06:05:38;;;;;;;11.00;3.60;;;;;;;13.02;59.56;99705.23;105803;1254;60376;-68
2023/04/22 06:08:07;;;;;;;17.40;3.60;;;;;;;13.12;58.94;99705.67;107576;1254;60425;-71
2023/04/22 06:10:36;;;;;;;14.00;4.30;;;;;;;13.19;58.55;99706.04;105903;1257;66751;-68
2023/04/22 06:13:05;;;;;;;12.50;4.10;;;;;;;13.26;58.47;99709.42;105685;1253;60510;-68
2023/04/22 06:15:34;;;;;;;17.00;3.70;;;;;;;13.33;58.06;99710.30;105727;1257;65580;-68
2023/04/22 06:18:03;;;;;;;16.60;4.60;;;;;;;13.40;58.02;99709.20;105621;1254;60475;-70
2023/04/22 06:20:32;;;;;;;15.10;4.10;;;;;;;13.50;57.80;99710.68;105509;1257;60434;-70
2023/04/22 06:23:00;;;;;;;12.10;3.80;;;;;;;13.60;57.50;99715.98;106214;1257;66574;-69
2023/04/22 06:25:28;;;;;;;12.60;3.20;;;;;;;13.70;57.14;99717.09;105774;1260;60546;-68
2023/04/22 06:27:58;;;;;;;11.50;2.70;;;;;;;13.78;56.28;99719.48;105582;1255;65272;-69
2023/04/22 06:30:26;;;;;;;11.10;2.70;;;;;;;13.85;55.47;99720.02;105709;1257;60366;-68
2023/04/22 06:32:54;;;;;;;5.80;2.00;;;;;;;13.92;55.04;99718.54;105723;1254;60514;-68
2023/04/22 06:35:23;;;;;;;9.30;2.30;;;;;;;13.99;54.38;99718.70;105789;1254;66767;-69
2023/04/22 06:37:51;;;;;;;8.50;2.60;;;;;;;14.05;53.78;99717.85;105507;1257;60613;-71
2023/04/22 06:40:20;;;;;;;7.80;2.30;;;;;;;14.12;52.99;99715.76;105863;1254;65049;-68
2023/04/22 06:43:27;;;;;;;9.70;2.20;;;;;;;14.19;52.33;99714.06;105485;1254;60402;-69
2023/04/22 06:46:09;;;;;;;8.20;2.10;;;;;;;14.26;51.79;99717.13;105574;1254;60463;-68
2023/04/22 06:48:53;;;;;;;10.70;2.10;;;;;;;14.29;51.17;99718.14;105702;1254;66591;-68
2023/04/22 06:51:44;;;;;;;9.10;2.40;;;;;;;14.31;50.37;99719.38;105572;1257;60491;-68
2023/04/22 06:54:13;;;;;;;13.00;2.30;;;;;;;14.32;50.29;99716.27;105704;1257;65539;-68
2023/04/22 06:56:41;;;;;;;7.60;2.50;;;;;;;14.37;50.43;99719.65;105819;1253;60462;-67
2023/04/22 06:59:10;;;;;;;9.70;2.20;;;;;;;14.45;50.64;99723.08;105784;1254;60565;-67
2023/04/22 07:01:38;;;;;;;10.20;2.20;;;;;;;14.47;50.54;99725.65;105696;1257;66272;-67
2023/04/22 07:04:07;;;;;;;8.40;2.40;;;;;;;14.56;50.78;99724.73;105622;1256;60460;-67
2023/04/22 07:06:35;;;;;;;13.30;2.60;;;;;;;14.65;50.86;99728.91;105779;1254;65617;-68
2023/04/22 07:09:04;;;;;;;9.70;2.10;;;;;;;14.74;50.66;99732.15;105779;1257;60540;-68
2023/04/22 07:11:33;;;;;;;8.60;2.20;;;;;;;14.79;50.05;99728.64;105692;1254;60656;-68
2023/04/22 07:14:05;;;;;;;9.10;2.50;;;;;;;14.87;49.79;99728.65;105715;1254;66693;-68
2023/04/22 07:16:34;;;;;;;9.50;2.20;;;;;;;14.93;49.62;99731.90;105811;1253;60428;-68
2023/04/22 07:19:02;;;;;;;11.20;2.40;;;;;;;14.99;49.50;99731.31;105792;1254;65320;-68
2023/04/22 07:21:31;;;;;;;8.90;2.40;;;;;;;15.07;49.49;99734.67;105633;1257;60515;-68
2023/04/22 07:24:00;;;;;;;14.60;2.40;;;;;;;15.15;49.63;99739.30;105633;1254;60616;-68
2023/04/22 07:26:30;;;;;;;8.60;2.30;;;;;;;15.22;49.63;99733.96;105630;1257;66713;-69
2023/04/22 07:28:59;;;;;;;9.50;2.30;;;;;;;15.30;49.59;99732.98;105712;1254;60481;-71
2023/04/22 07:31:27;;;;;;;9.60;2.60;;;;;;;15.36;49.13;99737.48;105622;1254;64360;-68
2023/04/22 07:33:55;;;;;;;7.40;2.20;;;;;;;15.40;48.73;99740.07;105833;1253;60539;-67
2023/04/22 07:36:24;;;;;;;7.60;2.20;;;;;;;15.43;48.51;99737.08;105768;1254;60454;-69
2023/04/22 07:38:52;;;;;;;10.30;2.10;;;;;;;15.44;47.92;99736.08;105818;1254;66816;-68
2023/04/22 07:41:20;;;;;;;12.70;2.60;;;;;;;15.51;48.02;99736.46;105729;1254;60549;-70
2023/04/22 07:43:49;;;;;;;8.10;2.00;;;;;;;15.63;47.75;99734.87;105751;1254;65540;-68
2023/04/22 07:46:17;;;;;;;11.70;2.50;;;;;;;15.72;46.62;99734.05;105779;1254;60523;-68
2023/04/22 07:48:46;;;;;;;8.20;2.50;;;;;;;15.74;46.48;99733.56;105761;1253;60521;-70
2023/04/22 07:51:14;;;;;;;5.00;2.00;;;;;;;15.76;46.62;99733.32;105814;1254;66711;-67
2023/04/22 07:53:42;;;;;;;10.50;2.50;;;;;;;15.82;46.79;99738.77;105970;1254;61562;-68
2023/04/22 07:56:11;;;;;;;13.90;2.60;;;;;;;15.92;46.83;99737.13;105257;1254;65337;-70
2023/04/22 07:58:40;;;;;;;8.80;2.80;;;;;;;16.01;46.76;99737.16;105726;1254;60451;-71
2023/04/22 08:01:08;;;;;;;12.20;2.50;;;;;;;16.11;46.73;99742.48;105482;1253;60536;-70
2023/04/22 08:03:37;;;;;;;8.50;2.50;;;;;;;16.18;46.92;99742.34;105718;1254;66726;-68
2023/04/22 08:06:06;;;;;;;7.70;2.40;;;;;;;16.26;46.67;99745.09;106193;1253;60443;-69
2023/04/22 08:08:34;;;;;;;9.90;2.40;;;;;;;16.33;46.52;99742.32;105937;1254;65317;-69
2023/04/22 08:11:02;;;;;;;8.90;2.50;;;;;;;16.39;46.57;99742.52;105532;1254;60526;-69
2023/04/22 08:13:31;;;;;;;11.30;2.50;;;;;;;16.43;46.29;99743.64;105480;1254;60533;-69
2023/04/22 08:16:01;;;;;;;9.50;2.70;;;;;;;16.46;45.93;99743.84;105670;1254;65543;-70
2023/04/22 08:18:30;;;;;;;9.90;2.20;;;;;;;16.50;45.89;99744.80;105720;1252;60508;-68
2023/04/22 08:20:59;;;;;;;10.20;2.40;;;;;;;16.61;45.97;99752.44;105953;1259;65332;-67
2023/04/22 08:23:28;;;;;;;9.20;2.20;;;;;;;16.72;46.06;99755.42;105600;1256;60444;-67
2023/04/22 08:25:56;;;;;;;10.20;2.90;;;;;;;16.83;46.22;99752.79;105403;1254;60453;-68
2023/04/22 08:28:24;;;;;;;9.80;2.40;;;;;;;16.92;45.15;99756.89;105982;1254;66540;-67
2023/04/22 08:30:53;;;;;;;13.70;2.50;;;;;;;16.97;44.93;99761.79;105339;1259;60458;-68
2023/04/22 08:33:21;;;;;;;9.60;2.10;;;;;;;17.05;45.08;99761.89;105308;1254;65691;-68
2023/04/22 08:35:52;;;;;;;9.00;2.60;;;;;;;17.16;45.28;99762.78;105478;1253;60380;-68
2023/04/22 08:38:21;;;;;;;14.80;2.60;;;;;;;17.24;44.76;99766.52;105709;1254;60384;-69
2023/04/22 08:40:49;;;;;;;7.80;2.50;;;;;;;17.29;44.79;99764.84;105516;1253;66722;-69
2023/04/22 08:43:20;;;;;;;12.70;2.80;;;;;;;17.37;44.58;99768.02;105597;1255;60411;-69
2023/04/22 08:45:49;;;;;;;12.10;2.90;;;;;;;17.44;44.39;99768.38;105790;1254;65866;-68
2023/04/22 08:48:18;;;;;;;10.30;2.70;;;;;;;17.52;44.36;99770.48;105800;1254;60804;-68
2023/04/22 08:50:48;;;;;;;9.60;2.50;;;;;;;17.62;44.64;99768.13;105582;1254;60466;-69
2023/04/22 08:53:16;;;;;;;13.80;2.90;;;;;;;17.71;44.34;99770.67;105780;1256;66507;-69
2023/04/22 08:55:44;;;;;;;8.50;2.80;;;;;;;17.80;44.14;99771.06;105594;1254;60899;-69
2023/04/22 08:58:13;;;;;;;10.60;2.80;;;;;;;17.88;44.20;99769.17;106137;1254;65607;-70
2023/04/22 09:00:42;;;;;;;9.30;2.70;;;;;;;17.97;44.04;99769.67;105971;1253;60482;-70
2023/04/22 09:03:11;;;;;;;15.40;2.90;;;;;;;18.06;43.51;99768.34;105514;1257;60351;-67
2023/04/22 09:05:40;;;;;;;8.80;3.00;;;;;;;18.13;43.25;99768.19;105577;1254;66080;-67
2023/04/22 09:08:09;;;;;;;10.60;2.80;;;;;;;18.23;43.16;99767.30;105631;1254;60562;-69
2023/04/22 09:10:38;;;;;;;8.90;2.80;;;;;;;18.34;43.07;99767.23;105575;1257;63951;-69
2023/04/22 09:13:06;;;;;;;9.90;3.20;;;;;;;18.46;43.06;99765.08;105741;1256;60456;-70
2023/04/22 09:15:34;;;;;;;10.40;3.60;;;;;;;18.59;42.94;99767.53;105791;1253;60514;-67
2023/04/22 09:18:04;;;;;;;10.90;3.40;;;;;;;18.66;42.43;99764.70;105518;1257;67029;-68
2023/04/22 09:20:32;;;;;;;20.60;3.20;;;;;;;18.65;41.89;99762.40;105426;1254;60479;-68
2023/04/22 09:23:03;;;;;;;10.30;3.20;;;;;;;18.69;42.33;99762.98;105540;1257;65553;-70
2023/04/22 09:25:34;;;;;;;12.60;3.30;;;;;;;18.74;41.99;99765.69;105633;1255;60425;-68
2023/04/22 09:28:02;;;;;;;11.40;3.70;;;;;;;18.73;42.48;99765.80;105724;1256;60414;-69
2023/04/22 09:30:36;;;;;;;12.40;3.60;;;;;;;18.79;43.42;99770.39;105632;1256;66822;-69
2023/04/22 09:33:05;;;;;;;11.30;3.40;;;;;;;18.81;43.20;99766.98;105638;1254;60444;-70
2023/04/22 09:35:35;;;;;;;11.70;3.20;;;;;;;18.81;43.69;99765.38;105705;1254;64566;-69
2023/04/22 09:38:08;;;;;;;11.30;3.80;;;;;;;18.89;44.26;99771.02;105776;1256;60434;-68
2023/04/22 09:40:37;;;;;;;15.10;3.20;;;;;;;19.03;44.53;99771.48;105563;1254;60482;-68
2023/04/22 09:43:06;;;;;;;14.10;3.70;;;;;;;19.19;44.37;99772.72;105456;1254;65818;-69
2023/04/22 09:45:37;;;;;;;13.80;3.80;;;;;;;19.31;43.76;99770.52;105235;1254;60492;-68
2023/04/22 09:48:10;;;;;;;14.90;3.90;;;;;;;19.40;43.87;99767.91;105706;1256;64317;-69
2023/04/22 09:50:40;;;;;;;17.10;4.00;;;;;;;19.52;43.75;99770.45;105517;1254;60456;-68
2023/04/22 09:53:10;;;;;;;14.70;3.50;;;;;;;19.68;43.70;99768.11;105614;1257;60447;-71
2023/04/22 09:55:40;;;;;;;8.80;3.40;;;;;;;19.88;43.20;99767.91;105462;1254;67060;-69
2023/04/22 09:58:13;;;;;;;17.50;5.10;;;;;;;20.09;43.23;99764.32;105548;1257;60636;-68
2023/04/22 10:00:42;;;;;;;16.80;4.30;;;;;;;20.25;42.55;99762.97;105529;1254;65483;-70
2023/04/22 10:03:10;;;;;;;13.00;3.40;;;;;;;20.36;42.47;99766.31;105577;1256;60424;-70
2023/04/22 10:05:40;;;;;;;14.20;3.60;;;;;;;20.46;41.58;99767.41;105754;1254;60543;-71
2023/04/22 10:08:09;;;;;;;13.70;3.70;;;;;;;20.50;41.23;99768.34;105591;1253;65437;-71
2023/04/22 10:10:38;;;;;;;12.10;3.90;;;;;;;20.54;40.51;99761.83;105984;1254;60550;-71
2023/04/22 10:13:06;;;;;;;7.40;3.10;;;;;;;20.55;40.55;99763.82;106095;1254;65494;-72
2023/04/22 10:15:39;;;;;;;14.10;3.90;;;;;;;20.67;41.29;99763.77;105732;1254;60534;-71
2023/04/22 10:18:10;;;;;;;10.20;3.40;;;;;;;20.83;41.24;99764.48;106024;1256;60411;-71
2023/04/22 10:20:39;;;;;;;12.20;3.20;;;;;;;20.99;41.37;99765.05;106169;1254;65547;-70
2023/04/22 10:23:14;;;;;;;8.90;3.10;;;;;;;21.20;40.28;99763.17;105973;1254;60550;-71
2023/04/22 10:25:50;;;;;;;9.50;3.30;;;;;;;21.34;39.48;99763.91;106465;1254;65702;-71
2023/04/22 10:28:20;;;;;;;12.70;3.20;;;;;;;21.47;39.24;99761.72;105982;1255;60387;-74
2023/04/22 10:30:48;;;;;;;10.40;3.20;;;;;;;21.61;39.10;99762.75;105878;1257;60460;-72
2023/04/22 10:33:19;;;;;;;10.40;3.30;;;;;;;21.76;39.06;99760.70;106103;1254;66958;-70
2023/04/22 10:36:16;;;;;;;10.90;3.20;;;;;;;21.85;38.08;99760.55;105984;1253;60440;-68
2023/04/22 10:38:54;;;;;;;7.80;3.10;;;;;;;21.99;38.11;99760.27;106953;1253;65271;-68
2023/04/22 10:41:24;;;;;;;9.90;3.30;;;;;;;22.16;37.30;99758.59;106035;1256;60517;-68
2023/04/22 10:44:00;;;;;;;8.70;3.30;;;;;;;22.28;37.23;99759.15;105600;1254;60479;-68
2023/04/22 10:46:31;;;;;;;9.40;3.50;;;;;;;22.34;36.96;99759.48;105370;1260;66543;-67
2023/04/22 10:49:14;;;;;;;8.60;3.00;;;;;;;22.45;37.25;99760.48;105505;1254;60305;-74
2023/04/22 10:51:43;;;;;;;11.60;3.40;;;;;;;22.63;37.01;99762.02;105704;1257;64293;-68
2023/04/22 10:54:27;;;;;;;12.20;3.60;;;;;;;22.75;36.38;99761.13;106007;1254;60551;-69
2023/04/22 10:57:06;;;;;;;7.80;3.10;;;;;;;22.85;36.01;99755.86;105927;1254;60368;-70
2023/04/22 10:59:45;;;;;;;8.70;3.30;;;;;;;23.00;35.90;99761.11;105468;1254;65454;-69
2023/04/22 11:02:16;;;;;;;10.40;3.10;;;;;;;23.17;35.56;99763.11;105507;1257;60537;-69
2023/04/22 11:04:45;;;;;;;10.50;3.30;;;;;;;23.35;35.67;99762.51;105703;1254;64571;-69
2023/04/22 11:07:21;;;;;;;8.00;3.40;;;;;;;23.55;35.46;99765.34;105557;1254;60604;-70
2023/04/22 11:09:50;;;;;;;9.30;3.50;;;;;;;23.76;34.70;99766.24;105628;1254;60460;-70
2023/04/22 11:12:34;;;;;;;9.90;3.90;;;;;;;23.86;33.81;99766.98;105791;1254;65682;-75
2023/04/22 11:15:12;;;;;;;8.80;3.40;;;;;;;23.90;33.97;99767.02;105652;1257;60475;-70
2023/04/22 11:17:45;;;;;;;12.90;3.10;;;;;;;24.01;34.04;99766.66;105609;1257;64296;-69
2023/04/22 11:20:16;;;;;;;8.20;3.00;;;;;;;24.07;33.99;99772.24;105548;1254;60466;-70
2023/04/22 11:22:46;;;;;;;9.00;3.60;;;;;;;24.02;34.21;99773.01;105643;1254;60527;-70
2023/04/22 11:25:14;;;;;;;9.20;3.40;;;;;;;23.85;33.11;99777.98;105705;1254;65728;-68
2023/04/22 11:27:42;;;;;;;12.40;3.40;;;;;;;23.54;32.56;99775.93;105692;1254;60498;-68
2023/04/22 11:30:16;;;;;;;10.20;3.50;;;;;;;23.24;33.35;99782.38;105738;1254;64539;-70
2023/04/22 11:32:46;;;;;;;9.00;3.80;;;;;;;23.10;34.27;99779.58;105478;1261;60437;-69
2023/04/22 11:35:15;;;;;;;9.00;4.10;;;;;;;23.14;35.05;99779.02;105661;1257;60472;-69